Time;durP1;ratioP1;P1;durP2;ratioP2;P2;SDS_P1;SDS_P2;PMS_P1;PMS_P2;Temp;Humidity;BMP_temperature;BMP_pressure;BME280_temperature;BME280_humidity;BME280_pressure;Samples;Min_cycle;Max_cycle;Signal;HPM_P1;HPM_P2
2023/01/28 00:01:45;;;;;;;6.70;3.90;;;2.50;99.90;;;;;;5023044;28;20486;-61
2023/01/28 00:04:14;;;;;;;6.67;3.60;;;2.30;99.90;;;;;;5025926;28;20820;-62
2023/01/28 00:06:42;;;;;;;6.63;3.93;;;2.30;99.90;;;;;;5038385;28;20990;-62
2023/01/28 00:09:10;;;;;;;6.07;4.57;;;2.60;99.90;;;;;;5032928;28;20501;-62
2023/01/28 00:11:39;;;;;;;6.20;4.60;;;2.40;99.90;;;;;;5033194;28;20476;-62
2023/01/28 00:14:07;;;;;;;5.97;4.57;;;2.40;99.90;;;;;;5051217;28;20479;-61
2023/01/28 00:16:35;;;;;;;6.60;4.30;;;2.30;99.90;;;;;;5032368;28;20975;-61
2023/01/28 00:19:04;;;;;;;4.23;2.90;;;2.30;99.90;;;;;;5033030;28;20463;-61
2023/01/28 00:21:32;;;;;;;4.17;3.03;;;2.30;99.90;;;;;;5032818;28;20463;-61
2023/01/28 00:24:00;;;;;;;5.07;3.10;;;2.80;99.90;;;;;;5033207;28;20815;-61
2023/01/28 00:26:29;;;;;;;4.07;3.17;;;2.80;99.90;;;;;;5020983;28;20577;-62
2023/01/28 00:28:57;;;;;;;4.97;3.83;;;2.80;99.90;;;;;;5013362;28;20495;-61
2023/01/28 00:31:26;;;;;;;5.23;4.30;;;2.80;99.90;;;;;;5020377;28;20569;-60
2023/01/28 00:33:55;;;;;;;5.67;4.47;;;3.20;99.90;;;;;;5032672;28;20459;-62
2023/01/28 00:36:26;;;;;;;8.87;4.30;;;3.10;99.90;;;;;;5038875;28;20998;-61
2023/01/28 00:38:55;;;;;;;5.53;3.60;;;2.80;99.90;;;;;;5040711;28;21054;-61
2023/01/28 00:41:25;;;;;;;5.60;3.47;;;2.80;99.90;;;;;;5032785;28;20467;-61
2023/01/28 00:43:54;;;;;;;6.13;4.00;;;3.20;99.90;;;;;;5032930;28;20966;-62
2023/01/28 00:46:25;;;;;;;5.17;3.70;;;3.20;99.90;;;;;;5032277;28;20500;-62
2023/01/28 00:48:53;;;;;;;4.47;3.80;;;3.30;99.90;;;;;;5032722;28;20565;-61
2023/01/28 00:51:21;;;;;;;6.30;3.70;;;3.30;99.90;;;;;;5020486;28;20474;-62
2023/01/28 00:53:51;;;;;;;5.60;4.50;;;3.50;99.90;;;;;;5012740;28;20454;-61
2023/01/28 00:56:20;;;;;;;5.57;4.43;;;3.40;99.90;;;;;;5022371;28;20824;-61
2023/01/28 00:58:49;;;;;;;6.27;4.27;;;3.20;99.90;;;;;;5031163;28;20466;-61
2023/01/28 01:01:20;;;;;;;6.97;3.97;;;2.90;99.90;;;;;;5031781;28;20468;-61
2023/01/28 01:03:53;;;;;;;7.50;4.47;;;2.90;99.90;;;;;;5032201;28;20966;-62
2023/01/28 01:06:22;;;;;;;6.97;5.07;;;3.20;99.90;;;;;;5043196;28;20484;-61
2023/01/28 01:08:51;;;;;;;7.50;4.83;;;3.40;99.90;;;;;;5039198;28;20461;-61
2023/01/28 01:11:19;;;;;;;7.43;4.80;;;3.30;99.90;;;;;;5032447;28;20458;-62
2023/01/28 01:13:51;;;;;;;4.47;4.07;;;3.00;99.90;;;;;;5031003;28;20472;-61
2023/01/28 01:16:19;;;;;;;5.07;3.70;;;2.70;99.90;;;;;;5032087;28;20463;-61
2023/01/28 01:18:51;;;;;;;5.40;3.67;;;2.60;99.90;;;;;;5031119;28;20463;-61
2023/01/28 01:21:21;;;;;;;4.90;4.40;;;2.80;99.90;;;;;;5032378;28;20470;-61
2023/01/28 01:23:51;;;;;;;6.07;4.50;;;3.20;99.90;;;;;;5030913;28;20511;-62
2023/01/28 01:26:20;;;;;;;4.80;4.27;;;3.50;99.90;;;;;;5023330;28;21001;-62
2023/01/28 01:28:48;;;;;;;4.87;4.10;;;3.10;99.90;;;;;;5015129;28;20462;-61
2023/01/28 01:31:18;;;;;;;5.43;4.03;;;3.00;99.90;;;;;;5022317;28;20480;-61
2023/01/28 01:33:48;;;;;;;4.60;3.70;;;2.80;99.90;;;;;;5035969;28;20486;-61
2023/01/28 01:36:19;;;;;;;4.70;4.27;;;3.00;99.90;;;;;;5046292;28;20547;-62
2023/01/28 01:38:47;;;;;;;5.43;3.90;;;2.90;99.90;;;;;;5042580;28;20474;-61
2023/01/28 01:41:24;;;;;;;4.20;3.80;;;2.70;99.90;;;;;;5034870;28;20475;-62
2023/01/28 01:43:55;;;;;;;4.80;4.20;;;3.20;99.90;;;;;;5035883;28;20868;-61
2023/01/28 01:46:31;;;;;;;5.50;5.00;;;3.40;99.90;;;;;;5051404;28;20485;-62
2023/01/28 01:49:06;;;;;;;5.57;4.70;;;3.50;99.90;;;;;;5034473;28;20552;-61
2023/01/28 01:51:36;;;;;;;4.67;4.07;;;3.50;99.90;;;;;;5034220;28;20473;-61
2023/01/28 01:54:05;;;;;;;6.33;4.37;;;3.20;99.90;;;;;;5035321;28;20553;-62
2023/01/28 01:56:38;;;;;;;8.40;5.10;;;3.30;99.90;;;;;;5035433;28;20507;-61
2023/01/28 01:59:12;;;;;;;4.83;4.43;;;3.20;99.90;;;;;;5034303;28;20463;-61
2023/01/28 02:01:40;;;;;;;5.50;4.50;;;3.00;99.90;;;;;;5033393;28;20816;-61
2023/01/28 02:04:13;;;;;;;5.63;3.90;;;3.10;99.90;;;;;;5026704;28;20965;-62
2023/01/28 02:06:42;;;;;;;4.53;3.73;;;2.80;99.90;;;;;;5043265;28;20495;-61
2023/01/28 02:09:26;;;;;;;4.67;4.07;;;2.60;99.90;;;;;;5035524;28;20824;-61
2023/01/28 02:11:58;;;;;;;5.40;3.87;;;2.90;99.90;;;;;;5033990;28;20481;-61
2023/01/28 02:14:30;;;;;;;6.03;4.00;;;2.70;99.90;;;;;;5050760;28;20893;-61
2023/01/28 02:17:00;;;;;;;5.20;4.70;;;3.10;99.90;;;;;;5038099;28;20962;-62
2023/01/28 02:19:36;;;;;;;4.80;3.60;;;3.10;99.90;;;;;;5033734;28;20478;-61
2023/01/28 02:22:20;;;;;;;4.53;3.27;;;3.40;99.90;;;;;;5035137;28;20497;-61
2023/01/28 02:25:43;;;;;;;5.37;3.67;;;3.50;99.90;;;;;;5021902;28;20543;-61
2023/01/28 02:28:24;;;;;;;4.67;4.00;;;3.10;99.90;;;;;;4992181;28;20491;-62
2023/01/28 02:30:57;;;;;;;4.60;4.07;;;2.90;99.90;;;;;;5016601;28;20477;-61
2023/01/28 02:33:33;;;;;;;6.00;4.80;;;3.10;99.90;;;;;;5034105;28;20461;-61
2023/01/28 02:36:10;;;;;;;5.53;5.00;;;3.00;99.90;;;;;;5041338;28;20474;-61
2023/01/28 02:38:45;;;;;;;6.27;4.90;;;2.90;99.90;;;;;;5038618;28;20453;-61
2023/01/28 02:41:20;;;;;;;6.27;4.77;;;2.70;99.90;;;;;;5013733;28;20527;-61
2023/01/28 02:43:50;;;;;;;6.20;4.70;;;2.50;99.90;;;;;;5015919;28;20523;-61
2023/01/28 02:49:12;;;;;;;8.40;5.40;;;2.60;99.90;;;;;;5033650;28;20468;-61
2023/01/28 02:51:52;;;;;;;6.33;4.37;;;2.60;99.90;;;;;;5019865;28;20531;-62
2023/01/28 02:54:32;;;;;;;5.10;3.97;;;2.50;99.90;;;;;;5020019;28;20522;-61
2023/01/28 02:57:10;;;;;;;4.47;4.13;;;2.80;99.90;;;;;;5033128;28;20475;-61
2023/01/28 02:59:49;;;;;;;6.23;4.10;;;2.80;99.90;;;;;;5032983;28;20563;-61
2023/01/28 03:02:25;;;;;;;4.40;3.97;;;2.60;99.90;;;;;;5029014;28;20480;-61
2023/01/28 03:05:00;;;;;;;5.40;4.00;;;2.90;99.90;;;;;;5045490;28;20957;-61
2023/01/28 03:07:31;;;;;;;3.90;3.60;;;2.60;99.90;;;;;;5034830;28;20480;-61
2023/01/28 03:10:04;;;;;;;4.30;3.90;;;2.50;99.90;;;;;;5035492;28;20909;-61
2023/01/28 03:37:59;;;;;;;5.20;4.50;;;2.90;99.90;;;;;;5043403;28;20465;-62
2023/01/28 03:40:28;;;;;;;5.93;5.10;;;3.00;99.90;;;;;;5031830;28;20465;-62
2023/01/28 03:42:56;;;;;;;6.90;5.20;;;3.20;99.90;;;;;;5032358;28;20990;-62
2023/01/28 03:45:33;;;;;;;6.63;4.60;;;2.90;99.90;;;;;;5032260;28;20472;-61
2023/01/28 03:48:06;;;;;;;5.67;5.17;;;2.70;99.90;;;;;;5032178;28;20594;-61
2023/01/28 03:50:34;;;;;;;6.83;6.13;;;3.00;99.90;;;;;;5031543;28;20465;-62
2023/01/28 03:53:12;;;;;;;6.60;5.73;;;2.80;99.90;;;;;;5032146;28;20484;-61
2023/01/28 03:55:52;;;;;;;6.20;5.60;;;3.00;99.90;;;;;;5026640;28;20481;-62
2023/01/28 03:58:22;;;;;;;6.07;5.53;;;3.10;99.90;;;;;;5012339;28;20505;-61
2023/01/28 04:00:51;;;;;;;5.20;4.70;;;2.80;99.90;;;;;;5014634;28;20501;-61
2023/01/28 04:03:21;;;;;;;6.50;5.20;;;2.80;99.90;;;;;;5031751;28;20481;-61
2023/01/28 04:06:03;;;;;;;7.13;5.53;;;2.70;99.90;;;;;;5044318;28;20998;-62
2023/01/28 04:08:58;;;;;;;6.50;5.90;;;2.90;99.90;;;;;;5038489;28;20576;-62
2023/01/28 04:11:46;;;;;;;7.30;6.50;;;3.00;99.90;;;;;;5013252;28;20470;-61
2023/01/28 04:14:20;;;;;;;6.53;5.87;;;2.70;99.90;;;;;;5020861;28;20519;-61
2023/01/28 04:16:54;;;;;;;6.00;5.40;;;2.60;99.90;;;;;;5031868;28;20983;-61
2023/01/28 04:19:27;;;;;;;7.63;5.40;;;2.40;99.90;;;;;;5031642;28;20912;-61
2023/01/28 04:21:56;;;;;;;8.27;5.33;;;2.30;99.90;;;;;;5031725;28;20586;-61
2023/01/28 04:24:25;;;;;;;5.53;5.03;;;2.40;99.90;;;;;;5031546;28;20511;-61
2023/01/28 04:26:54;;;;;;;7.30;6.50;;;2.60;99.90;;;;;;5031589;28;20469;-61
2023/01/28 04:29:23;;;;;;;6.80;6.20;;;2.60;99.90;;;;;;5031500;28;21066;-61
2023/01/28 04:31:53;;;;;;;8.50;7.70;;;2.80;99.90;;;;;;5029983;28;20444;-61
2023/01/28 04:34:43;;;;;;;7.70;6.47;;;2.90;99.90;;;;;;5031937;28;20287;-61
2023/01/28 04:37:37;;;;;;;8.00;6.17;;;2.60;99.90;;;;;;5042428;28;20525;-61
2023/01/28 04:40:12;;;;;;;7.33;5.70;;;2.40;99.90;;;;;;5023640;28;20503;-61
2023/01/28 04:42:54;;;;;;;7.20;5.73;;;2.40;99.90;;;;;;5031394;28;20477;-61
2023/01/28 04:45:48;;;;;;;8.10;7.13;;;2.40;99.90;;;;;;5004221;28;20574;-61
2023/01/28 04:48:30;;;;;;;7.23;6.53;;;2.70;99.90;;;;;;5032750;28;20500;-61
2023/01/28 04:51:19;;;;;;;6.77;5.97;;;2.40;99.90;;;;;;5031664;28;20513;-61
2023/01/28 04:54:19;;;;;;;6.90;6.10;;;2.20;99.90;;;;;;5004564;28;20457;-61
2023/01/28 04:56:47;;;;;;;6.93;6.23;;;2.30;99.90;;;;;;5027087;28;20519;-61
2023/01/28 04:59:15;;;;;;;7.47;6.67;;;2.50;99.90;;;;;;5031355;28;20509;-62
2023/01/28 05:01:44;;;;;;;8.10;6.90;;;2.70;99.90;;;;;;5031977;28;21161;-61
2023/01/28 05:04:12;;;;;;;8.67;7.20;;;2.80;99.90;;;;;;5050409;28;20560;-61
2023/01/28 05:06:41;;;;;;;8.27;7.07;;;3.00;99.90;;;;;;5034167;28;20500;-61
2023/01/28 05:09:16;;;;;;;8.00;6.83;;;2.90;99.90;;;;;;5043065;28;20876;-62
2023/01/28 05:11:44;;;;;;;7.90;6.43;;;2.90;99.90;;;;;;5035004;28;20462;-61
2023/01/28 05:14:13;;;;;;;7.57;6.50;;;2.70;99.90;;;;;;5033463;28;20928;-61
2023/01/28 05:16:45;;;;;;;8.53;6.47;;;2.80;99.90;;;;;;5033660;28;20459;-61
2023/01/28 05:19:14;;;;;;;8.30;6.53;;;2.70;99.90;;;;;;5033710;28;20484;-61
2023/01/28 05:21:47;;;;;;;7.80;6.83;;;2.80;99.90;;;;;;5033531;28;20518;-61
2023/01/28 05:24:23;;;;;;;7.47;6.60;;;2.70;99.90;;;;;;5033614;28;20974;-61
2023/01/28 05:26:53;;;;;;;10.67;7.57;;;2.70;99.90;;;;;;5033647;28;20982;-61
2023/01/28 05:29:21;;;;;;;7.67;6.50;;;2.60;99.90;;;;;;5033575;28;20593;-61
2023/01/28 05:31:49;;;;;;;7.37;6.63;;;2.60;99.90;;;;;;5034114;28;20556;-61
2023/01/28 05:34:17;;;;;;;7.83;7.10;;;2.60;99.90;;;;;;5034184;28;20996;-61
2023/01/28 05:36:47;;;;;;;7.63;6.77;;;2.40;99.90;;;;;;5039915;28;20514;-61
2023/01/28 05:39:27;;;;;;;8.70;7.17;;;2.50;99.90;;;;;;5038792;28;20979;-62
2023/01/28 05:41:56;;;;;;;7.30;6.47;;;2.20;99.90;;;;;;5049962;28;20474;-61
2023/01/28 05:44:24;;;;;;;9.17;7.27;;;2.50;99.90;;;;;;5037339;28;20919;-61
2023/01/28 05:47:14;;;;;;;9.07;7.63;;;2.50;99.90;;;;;;5026180;28;20462;-61
2023/01/28 05:49:52;;;;;;;8.87;7.97;;;2.50;99.90;;;;;;5013339;28;20527;-61
2023/01/28 05:52:33;;;;;;;10.70;8.50;;;2.50;99.90;;;;;;5014805;28;20457;-61
2023/01/28 05:55:03;;;;;;;7.90;6.87;;;2.40;99.90;;;;;;5013517;28;21000;-62
2023/01/28 05:57:31;;;;;;;7.90;7.20;;;2.50;99.90;;;;;;5026529;28;20477;-61
2023/01/28 06:00:00;;;;;;;9.90;7.93;;;2.30;99.90;;;;;;5027971;28;20981;-61
2023/01/28 06:02:28;;;;;;;9.47;7.80;;;2.50;99.90;;;;;;4981531;28;1266246;-62
2023/01/28 06:04:59;;;;;;;10.23;7.40;;;2.60;99.90;;;;;;5030236;28;20218;-62
2023/01/28 06:07:27;;;;;;;8.30;7.33;;;2.50;99.90;;;;;;5027478;28;20459;-61
2023/01/28 06:09:56;;;;;;;9.63;8.70;;;2.50;99.90;;;;;;5043031;28;20515;-61
2023/01/28 06:12:25;;;;;;;8.50;7.60;;;2.20;99.90;;;;;;5029580;28;20561;-61
2023/01/28 06:15:11;;;;;;;9.40;6.80;;;1.80;99.90;;;;;;5028835;28;20548;-61
2023/01/28 06:18:01;;;;;;;9.40;8.37;;;1.80;99.90;;;;;;5032253;28;20565;-61
2023/01/28 06:20:33;;;;;;;9.33;7.90;;;1.90;99.90;;;;;;5028448;28;20804;-61
2023/01/28 06:23:01;;;;;;;8.03;7.23;;;1.60;99.90;;;;;;5024950;28;20541;-61
2023/01/28 06:25:31;;;;;;;9.63;7.27;;;1.70;99.90;;;;;;5022580;28;20833;-61
2023/01/28 06:28:03;;;;;;;12.43;9.50;;;1.80;99.90;;;;;;5026658;28;20473;-61
2023/01/28 06:30:31;;;;;;;10.50;9.00;;;1.70;99.90;;;;;;5032680;28;20469;-62
2023/01/28 06:32:59;;;;;;;10.80;8.77;;;1.50;99.90;;;;;;5027937;28;20971;-62
2023/01/28 06:35:27;;;;;;;7.67;6.80;;;1.30;99.90;;;;;;5025844;28;20484;-61
2023/01/28 06:37:56;;;;;;;9.87;8.63;;;1.30;99.90;;;;;;5033388;28;20468;-61
2023/01/28 06:40:24;;;;;;;8.20;7.33;;;1.10;99.90;;;;;;5025752;28;20794;-62
2023/01/28 06:42:54;;;;;;;9.17;7.80;;;1.40;99.90;;;;;;5024230;28;20463;-61
2023/01/28 06:45:22;;;;;;;10.13;8.60;;;1.50;99.90;;;;;;5023687;28;20831;-61
2023/01/28 06:47:50;;;;;;;11.87;8.57;;;1.60;99.90;;;;;;5024497;28;20480;-61
2023/01/28 06:50:18;;;;;;;11.07;9.43;;;1.80;99.90;;;;;;5025233;28;20485;-61
2023/01/28 06:52:46;;;;;;;10.30;8.37;;;1.70;99.90;;;;;;5024575;28;20478;-61
2023/01/28 06:55:14;;;;;;;10.90;9.80;;;1.90;99.90;;;;;;5020231;28;20477;-61
2023/01/28 06:57:44;;;;;;;9.70;8.67;;;1.50;99.90;;;;;;5016382;28;20493;-61
2023/01/28 07:00:15;;;;;;;9.40;7.70;;;1.20;99.90;;;;;;5027569;28;20491;-61
2023/01/28 07:02:43;;;;;;;10.67;9.17;;;1.30;99.90;;;;;;5031302;28;21041;-61
2023/01/28 07:05:11;;;;;;;10.67;8.87;;;1.30;99.90;;;;;;5031003;28;20478;-61
2023/01/28 07:07:40;;;;;;;12.17;9.33;;;1.50;99.90;;;;;;5027925;28;20460;-61
2023/01/28 07:10:10;;;;;;;9.87;7.87;;;1.40;99.90;;;;;;5025065;28;20492;-61
2023/01/28 07:12:38;;;;;;;9.40;8.43;;;1.50;99.90;;;;;;5023552;28;21000;-61
2023/01/28 07:15:09;;;;;;;10.87;8.47;;;1.70;99.90;;;;;;5023149;28;20478;-61
2023/01/28 07:17:41;;;;;;;12.33;11.03;;;1.60;99.90;;;;;;5022961;28;20508;-61
2023/01/28 07:20:11;;;;;;;11.73;9.77;;;1.50;99.90;;;;;;5023013;28;20952;-61
2023/01/28 07:22:41;;;;;;;10.00;8.97;;;1.50;99.90;;;;;;5023902;28;20543;-61
2023/01/28 07:25:11;;;;;;;10.67;9.57;;;1.50;99.90;;;;;;5023821;28;21257;-61
2023/01/28 07:27:39;;;;;;;11.50;10.17;;;1.60;99.90;;;;;;5022308;28;20494;-61
2023/01/28 07:30:08;;;;;;;12.73;10.47;;;1.70;99.90;;;;;;5023647;28;20551;-62
2023/01/28 07:32:36;;;;;;;11.93;9.63;;;1.40;99.90;;;;;;5020168;28;20816;-61
2023/01/28 07:35:07;;;;;;;13.13;9.83;;;1.10;99.90;;;;;;5040177;28;20475;-62
2023/01/28 07:37:36;;;;;;;12.53;10.47;;;0.90;99.90;;;;;;5029362;28;20475;-61
2023/01/28 07:40:04;;;;;;;14.83;11.33;;;1.10;99.90;;;;;;5027518;28;20468;-62
2023/01/28 07:42:32;;;;;;;14.10;12.40;;;1.10;99.90;;;;;;5033723;28;20974;-61
2023/01/28 07:45:05;;;;;;;14.90;11.50;;;1.10;99.90;;;;;;5032278;28;20472;-61
2023/01/28 07:47:33;;;;;;;16.70;11.83;;;1.00;99.90;;;;;;5045735;28;20993;-61
2023/01/28 07:50:01;;;;;;;13.67;11.23;;;0.90;99.90;;;;;;5053190;28;21001;-61
2023/01/28 07:52:36;;;;;;;15.20;11.37;;;1.20;99.90;;;;;;5053865;28;20953;-62
2023/01/28 07:55:05;;;;;;;16.83;12.67;;;1.00;99.90;;;;;;5053278;28;20913;-61
2023/01/28 07:57:33;;;;;;;14.40;12.00;;;1.30;99.90;;;;;;5053390;28;20466;-61
2023/01/28 08:00:01;;;;;;;16.07;11.97;;;1.20;99.90;;;;;;5053534;28;20470;-61
2023/01/28 08:02:39;;;;;;;23.07;13.33;;;1.10;99.90;;;;;;5034552;28;20472;-61
2023/01/28 08:05:07;;;;;;;17.97;14.13;;;1.10;99.90;;;;;;5037411;28;20513;-62
2023/01/28 08:07:37;;;;;;;18.47;14.47;;;1.10;99.90;;;;;;5026196;28;20503;-61
2023/01/28 08:10:06;;;;;;;21.20;15.83;;;1.10;99.90;;;;;;5033359;28;20493;-61
2023/01/28 08:12:34;;;;;;;18.87;16.83;;;1.10;99.90;;;;;;5033141;28;20486;-61
2023/01/28 08:15:04;;;;;;;18.93;14.83;;;1.20;99.90;;;;;;5032806;28;20476;-61
2023/01/28 08:17:32;;;;;;;17.90;14.37;;;1.30;99.90;;;;;;5028403;28;20465;-62
2023/01/28 08:20:00;;;;;;;17.43;14.33;;;1.20;99.90;;;;;;5017253;28;20465;-61
2023/01/28 08:22:29;;;;;;;14.87;13.27;;;1.00;99.90;;;;;;5012935;28;20539;-61
2023/01/28 08:24:58;;;;;;;13.47;11.60;;;1.00;99.90;;;;;;5013156;28;20474;-62
2023/01/28 08:27:26;;;;;;;13.80;10.63;;;1.00;99.90;;;;;;5013269;28;20959;-61
2023/01/28 08:29:54;;;;;;;12.80;11.53;;;1.10;99.90;;;;;;5013386;28;20547;-61
2023/01/28 08:32:22;;;;;;;15.93;11.47;;;1.30;99.90;;;;;;5028075;28;20471;-61
2023/01/28 08:34:50;;;;;;;15.73;12.40;;;1.70;99.90;;;;;;5032994;28;21001;-62
2023/01/28 08:37:18;;;;;;;16.47;12.83;;;1.80;99.90;;;;;;5039450;28;20469;-61
2023/01/28 08:39:46;;;;;;;14.23;12.20;;;1.80;99.90;;;;;;5015551;28;20880;-61
2023/01/28 08:42:16;;;;;;;16.97;14.80;;;1.90;99.90;;;;;;5013020;28;20461;-61
2023/01/28 08:44:44;;;;;;;20.03;16.17;;;1.90;99.90;;;;;;5028842;28;20467;-61
2023/01/28 08:47:12;;;;;;;21.03;17.77;;;2.10;99.90;;;;;;5024966;28;20459;-61
2023/01/28 08:49:40;;;;;;;22.40;16.30;;;2.10;99.90;;;;;;5030316;28;20464;-60
2023/01/28 08:52:15;;;;;;;19.30;15.50;;;2.10;99.90;;;;;;5030827;28;20459;-61
2023/01/28 08:54:43;;;;;;;20.23;15.77;;;2.30;99.90;;;;;;5030831;28;20476;-61
2023/01/28 08:57:11;;;;;;;18.17;15.47;;;2.50;99.90;;;;;;5032825;28;20805;-61
2023/01/28 08:59:43;;;;;;;15.20;12.87;;;2.50;99.90;;;;;;5032395;28;20467;-61
2023/01/28 09:02:14;;;;;;;14.97;13.03;;;2.70;99.90;;;;;;5031840;28;20904;-61
2023/01/28 09:04:58;;;;;;;15.00;13.40;;;2.80;99.90;;;;;;5033948;28;20477;-60
2023/01/28 09:07:26;;;;;;;13.47;12.00;;;2.80;99.90;;;;;;5026158;28;20471;-60
2023/01/28 09:09:54;;;;;;;13.97;12.27;;;2.70;99.90;;;;;;5027211;28;20495;-60
2023/01/28 09:12:22;;;;;;;13.17;11.70;;;2.90;99.90;;;;;;5027254;28;20978;-61
2023/01/28 09:14:51;;;;;;;12.73;11.43;;;3.10;99.90;;;;;;5030471;28;20479;-61
2023/01/28 09:17:20;;;;;;;14.13;11.53;;;3.10;99.90;;;;;;5026063;28;20457;-61
2023/01/28 09:19:48;;;;;;;13.10;11.70;;;3.20;99.90;;;;;;5030252;28;20976;-61
2023/01/28 09:22:16;;;;;;;12.87;11.57;;;3.20;99.90;;;;;;5028233;28;20496;-61
2023/01/28 09:24:44;;;;;;;12.77;11.47;;;3.20;99.90;;;;;;5028086;28;20461;-61
2023/01/28 09:27:12;;;;;;;13.83;11.17;;;3.20;99.90;;;;;;5026824;28;21190;-60
2023/01/28 09:29:40;;;;;;;12.63;11.17;;;3.30;99.90;;;;;;5027719;28;20482;-61
2023/01/28 09:32:10;;;;;;;13.77;11.47;;;3.40;99.90;;;;;;5025688;28;20479;-61
2023/01/28 09:34:39;;;;;;;14.60;13.10;;;3.60;99.90;;;;;;5027179;28;20476;-61
2023/01/28 09:37:07;;;;;;;14.10;12.03;;;3.80;99.90;;;;;;5029435;28;20475;-61
2023/01/28 09:39:35;;;;;;;14.30;12.60;;;4.00;99.90;;;;;;5028434;28;20983;-61
2023/01/28 09:42:31;;;;;;;14.43;12.97;;;4.10;99.90;;;;;;5027920;28;20823;-61
2023/01/28 09:45:07;;;;;;;13.53;12.10;;;4.20;99.90;;;;;;5028042;28;20469;-61
2023/01/28 09:47:42;;;;;;;15.20;12.53;;;4.40;99.90;;;;;;5026863;28;20476;-61
2023/01/28 09:50:15;;;;;;;14.27;12.60;;;4.30;99.90;;;;;;5032196;28;20484;-61
2023/01/28 09:52:45;;;;;;;15.83;13.17;;;4.20;99.90;;;;;;5030926;28;20479;-61
2023/01/28 09:55:22;;;;;;;14.57;13.07;;;4.10;99.90;;;;;;5031361;28;20475;-61
2023/01/28 09:57:54;;;;;;;14.87;12.40;;;4.10;99.90;;;;;;5031425;28;20979;-61
2023/01/28 10:00:24;;;;;;;14.53;12.93;;;4.30;99.90;;;;;;5030969;28;20474;-61
2023/01/28 10:03:21;;;;;;;14.73;13.00;;;4.40;99.90;;;;;;5028437;28;20474;-61
2023/01/28 10:06:00;;;;;;;15.07;13.43;;;4.70;99.90;;;;;;5032359;28;20473;-61
2023/01/28 10:08:51;;;;;;;15.97;14.20;;;4.80;99.90;;;;;;5030510;28;21011;-61
2023/01/28 10:11:26;;;;;;;15.00;13.40;;;4.80;99.90;;;;;;5031588;28;20490;-61
2023/01/28 10:14:02;;;;;;;15.20;13.47;;;4.90;99.90;;;;;;5031308;28;20461;-60
2023/01/28 10:16:37;;;;;;;14.70;13.10;;;5.00;99.90;;;;;;5031144;28;20825;-61
2023/01/28 10:19:14;;;;;;;14.47;13.07;;;4.80;99.90;;;;;;5029625;28;20485;-61
2023/01/28 10:21:51;;;;;;;17.23;13.03;;;4.80;99.90;;;;;;5029858;28;20487;-61
2023/01/28 10:24:27;;;;;;;13.97;12.47;;;4.90;99.90;;;;;;5031123;28;20476;-61
2023/01/28 10:26:56;;;;;;;14.57;12.63;;;4.90;99.90;;;;;;5031127;28;20560;-61
2023/01/28 10:29:28;;;;;;;14.40;12.60;;;5.00;99.90;;;;;;5031004;28;20807;-61
2023/01/28 10:31:59;;;;;;;15.77;12.87;;;5.00;99.90;;;;;;5029454;28;20489;-61
2023/01/28 10:34:29;;;;;;;14.73;13.03;;;4.90;99.90;;;;;;5030388;28;20471;-61
2023/01/28 10:36:58;;;;;;;15.43;13.27;;;5.10;99.90;;;;;;5032944;28;20463;-60
2023/01/28 10:39:28;;;;;;;14.43;13.00;;;5.20;99.90;;;;;;5030293;28;20481;-61
2023/01/28 10:41:56;;;;;;;15.27;13.60;;;5.30;99.90;;;;;;5030506;28;20474;-61
2023/01/28 10:44:32;;;;;;;15.47;12.67;;;5.40;99.90;;;;;;5030376;28;20514;-61
2023/01/28 10:47:05;;;;;;;14.17;12.77;;;5.50;99.90;;;;;;5030503;28;20458;-60
2023/01/28 10:49:42;;;;;;;13.30;12.10;;;5.50;99.90;;;;;;5028172;28;20474;-61
2023/01/28 10:52:12;;;;;;;13.43;11.87;;;5.60;99.90;;;;;;5032863;28;20528;-61
2023/01/28 10:54:40;;;;;;;13.73;12.37;;;5.60;99.90;;;;;;5034539;28;20465;-61
2023/01/28 10:57:12;;;;;;;13.53;12.13;;;5.40;99.90;;;;;;5034616;28;20485;-61
2023/01/28 10:59:41;;;;;;;14.90;12.70;;;5.40;99.90;;;;;;5033483;28;20633;-60
2023/01/28 11:02:31;;;;;;;14.60;12.03;;;5.50;99.90;;;;;;5032284;28;20831;-61
2023/01/28 11:05:17;;;;;;;14.23;12.83;;;5.70;99.90;;;;;;5036737;28;20471;-61
2023/01/28 11:07:45;;;;;;;15.73;12.77;;;5.80;99.90;;;;;;5045791;28;20473;-61
2023/01/28 11:10:26;;;;;;;14.33;12.87;;;5.70;99.90;;;;;;5054692;28;20961;-61
2023/01/28 11:12:58;;;;;;;13.87;12.47;;;5.80;99.90;;;;;;5048585;28;20478;-60
2023/01/28 11:15:26;;;;;;;14.17;12.67;;;5.90;99.90;;;;;;5054453;28;20706;-61
2023/01/28 11:17:59;;;;;;;15.67;13.57;;;5.90;99.90;;;;;;5054459;28;20498;-61
2023/01/28 11:20:33;;;;;;;15.97;13.47;;;6.10;99.90;;;;;;5054244;28;20239;-60
2023/01/28 11:23:01;;;;;;;14.77;12.30;;;6.10;99.90;;;;;;5053996;28;20231;-61
2023/01/28 11:25:31;;;;;;;16.53;14.80;;;6.10;99.90;;;;;;5054072;28;20824;-61
2023/01/28 11:28:02;;;;;;;15.73;14.00;;;5.80;99.90;;;;;;5053756;28;20231;-61
2023/01/28 11:30:32;;;;;;;15.93;14.13;;;5.60;99.90;;;;;;5053345;28;20469;-61
2023/01/28 11:33:07;;;;;;;14.77;13.30;;;5.40;99.90;;;;;;5034171;28;20278;-61
2023/01/28 11:35:37;;;;;;;15.90;14.13;;;5.30;99.90;;;;;;5045144;28;20476;-61
2023/01/28 11:38:17;;;;;;;16.23;14.10;;;5.30;99.90;;;;;;5045668;28;20846;-61
2023/01/28 11:40:51;;;;;;;14.97;13.37;;;5.30;99.90;;;;;;5049476;28;20466;-61
2023/01/28 11:43:22;;;;;;;14.03;12.63;;;5.20;99.90;;;;;;5033895;28;20965;-61
2023/01/28 11:45:59;;;;;;;14.67;13.13;;;5.10;99.90;;;;;;5033491;28;20467;-61
2023/01/28 11:48:37;;;;;;;16.70;13.67;;;5.00;99.90;;;;;;5033657;28;20471;-61
2023/01/28 11:51:20;;;;;;;16.63;13.00;;;4.90;99.90;;;;;;5024879;28;20727;-61
2023/01/28 11:54:07;;;;;;;14.83;13.23;;;4.70;99.90;;;;;;5013574;28;20456;-62
2023/01/28 11:56:56;;;;;;;16.20;13.10;;;4.60;99.90;;;;;;5013624;28;20503;-62
2023/01/28 11:59:57;;;;;;;16.53;13.37;;;4.60;99.90;;;;;;5041174;28;20462;-62
2023/01/28 12:02:53;;;;;;;15.53;13.13;;;4.60;99.90;;;;;;5036674;28;20833;-61
2023/01/28 12:05:46;;;;;;;15.50;12.80;;;4.70;99.90;;;;;;5027787;28;20497;-61
2023/01/28 12:08:23;;;;;;;14.53;13.03;;;4.80;99.90;;;;;;5038531;28;20969;-61
2023/01/28 12:11:13;;;;;;;17.00;13.10;;;5.00;99.90;;;;;;5045691;28;20564;-62
2023/01/28 12:13:59;;;;;;;13.80;12.33;;;5.20;99.90;;;;;;5023126;28;20974;-61
2023/01/28 12:16:45;;;;;;;13.20;11.80;;;5.30;99.90;;;;;;5013514;28;20476;-61
2023/01/28 12:19:27;;;;;;;12.90;11.60;;;5.40;99.90;;;;;;5020013;28;20567;-61
2023/01/28 12:22:08;;;;;;;13.40;12.00;;;5.30;99.90;;;;;;5026925;28;20823;-61
2023/01/28 12:24:53;;;;;;;14.27;12.10;;;5.30;99.90;;;;;;5029082;28;20470;-61
2023/01/28 12:27:34;;;;;;;13.77;12.17;;;5.40;99.90;;;;;;5027332;28;20496;-61
2023/01/28 12:30:18;;;;;;;13.33;11.60;;;5.50;99.90;;;;;;5028958;28;20266;-62
2023/01/28 12:33:01;;;;;;;14.00;11.23;;;5.50;99.90;;;;;;5028323;28;20489;-59
2023/01/28 12:35:44;;;;;;;14.37;11.27;;;5.60;99.90;;;;;;5028977;28;20221;-61
2023/01/28 12:38:15;;;;;;;13.77;11.57;;;5.50;99.90;;;;;;5028899;28;20463;-62
2023/01/28 12:41:01;;;;;;;12.70;11.40;;;5.30;99.90;;;;;;5028254;28;20479;-61
2023/01/28 12:43:50;;;;;;;14.27;12.03;;;5.30;99.90;;;;;;5027052;28;20220;-62
2023/01/28 12:46:29;;;;;;;13.17;11.30;;;5.20;99.90;;;;;;5028885;28;20474;-62
2023/01/28 12:49:02;;;;;;;14.27;12.13;;;5.20;99.90;;;;;;5028688;28;20235;-62
2023/01/28 12:51:36;;;;;;;13.37;11.87;;;5.10;99.90;;;;;;5028177;28;20230;-62
2023/01/28 12:54:10;;;;;;;14.47;11.27;;;5.10;99.90;;;;;;5027780;28;20238;-62
2023/01/28 12:56:44;;;;;;;14.67;11.43;;;5.00;99.90;;;;;;5028110;28;20322;-62
2023/01/28 12:59:16;;;;;;;12.63;11.10;;;5.00;99.90;;;;;;5028322;28;20982;-62
2023/01/28 13:01:47;;;;;;;12.80;11.40;;;4.90;99.90;;;;;;5026815;28;20482;-62
2023/01/28 13:04:31;;;;;;;13.73;11.07;;;4.80;99.90;;;;;;5027852;28;20236;-62
2023/01/28 13:07:04;;;;;;;14.97;11.70;;;4.70;99.90;;;;;;5029048;28;20980;-62
2023/01/28 13:09:36;;;;;;;15.57;12.33;;;4.70;99.90;;;;;;5028377;28;20987;-62
2023/01/28 13:12:07;;;;;;;13.80;11.63;;;4.60;99.90;;;;;;5028561;28;20483;-62
2023/01/28 13:14:35;;;;;;;15.50;12.40;;;4.60;99.90;;;;;;5026995;28;20709;-62
2023/01/28 13:17:24;;;;;;;16.23;12.17;;;4.60;99.90;;;;;;5027900;28;21021;-61
2023/01/28 13:19:52;;;;;;;16.17;11.97;;;4.50;99.90;;;;;;5027641;28;20236;-61
2023/01/28 13:22:29;;;;;;;15.00;12.73;;;4.60;99.90;;;;;;5028075;28;20461;-62
2023/01/28 13:24:59;;;;;;;16.00;12.53;;;4.80;99.90;;;;;;5032352;28;20978;-62
2023/01/28 13:27:29;;;;;;;15.17;13.00;;;4.80;99.90;;;;;;5032093;28;21000;-62
2023/01/28 13:30:21;;;;;;;14.70;12.27;;;5.00;99.90;;;;;;5032201;28;20494;-62
2023/01/28 13:32:57;;;;;;;15.63;13.10;;;4.90;99.90;;;;;;5029547;28;20864;-62
2023/01/28 13:35:32;;;;;;;16.90;14.33;;;5.00;99.90;;;;;;5031210;28;20462;-62
2023/01/28 13:38:08;;;;;;;16.30;13.57;;;5.00;99.90;;;;;;5032275;28;20463;-62
2023/01/28 13:40:38;;;;;;;15.60;12.80;;;5.00;99.90;;;;;;5030733;28;20464;-62
2023/01/28 13:43:27;;;;;;;14.17;12.43;;;4.90;99.90;;;;;;5030688;28;20463;-62
2023/01/28 13:45:57;;;;;;;14.60;12.03;;;4.90;99.90;;;;;;5030218;28;20973;-61